Time;durP1;ratioP1;P1;durP2;ratioP2;P2;SDS_P1;SDS_P2;PMS_P1;PMS_P2;Temp;Humidity;BMP_temperature;BMP_pressure;BME280_temperature;BME280_humidity;BME280_pressure;Samples;Min_cycle;Max_cycle;Signal;HPM_P1;HPM_P2
2022/06/27 00:01:14;;;;;;;4.90;4.50;;;;;;;;;;5001490;28;21044;-74
2022/06/27 00:03:41;;;;;;;4.77;4.47;;;;;;;;;;5012846;28;20428;-73
2022/06/27 00:06:09;;;;;;;5.10;4.60;;;;;;;;;;5012422;28;20447;-73
2022/06/27 00:08:36;;;;;;;4.78;4.40;;;;;;;;;;5013008;28;20431;-73
2022/06/27 00:11:05;;;;;;;5.38;4.97;;;;;;;;;;5022931;28;20456;-73
2022/06/27 00:13:32;;;;;;;5.30;4.90;;;;;;;;;;5017502;28;20438;-73
2022/06/27 00:15:59;;;;;;;5.20;4.80;;;;;;;;;;5016564;28;20440;-73
2022/06/27 00:18:26;;;;;;;5.10;4.80;;;;;;;;;;4999569;28;20780;-74
2022/06/27 00:20:53;;;;;;;5.68;5.28;;;;;;;;;;5000932;28;20454;-73
2022/06/27 00:23:21;;;;;;;4.95;4.65;;;;;;;;;;5003027;28;20460;-73
2022/06/27 00:25:48;;;;;;;5.60;5.10;;;;;;;;;;5002609;28;20433;-73
2022/06/27 00:28:16;;;;;;;5.07;4.78;;;;;;;;;;5001864;28;20795;-74
2022/06/27 00:30:43;;;;;;;5.10;4.80;;;;;;;;;;4999883;28;20492;-74
2022/06/27 00:33:11;;;;;;;5.63;5.00;;;;;;;;;;4996251;28;20452;-73
2022/06/27 00:35:38;;;;;;;5.33;4.93;;;;;;;;;;5001631;28;20572;-75
2022/06/27 00:38:05;;;;;;;5.68;5.28;;;;;;;;;;5012302;28;21046;-73
2022/06/27 00:40:32;;;;;;;5.20;4.90;;;;;;;;;;5013864;28;20435;-75
2022/06/27 00:42:59;;;;;;;5.10;4.70;;;;;;;;;;5013820;28;20528;-75
2022/06/27 00:45:27;;;;;;;5.90;5.40;;;;;;;;;;5013754;28;20441;-73
2022/06/27 00:47:55;;;;;;;5.95;5.55;;;;;;;;;;4998196;28;20792;-72
2022/06/27 00:50:22;;;;;;;6.27;5.73;;;;;;;;;;5010130;28;20680;-73
2022/06/27 00:52:49;;;;;;;6.70;6.20;;;;;;;;;;5014021;28;20941;-73
2022/06/27 00:55:16;;;;;;;6.75;6.25;;;;;;;;;;5008153;28;20412;-73
2022/06/27 00:57:44;;;;;;;7.53;6.93;;;;;;;;;;4992588;28;20558;-74
2022/06/27 01:00:12;;;;;;;8.00;7.40;;;;;;;;;;5008316;28;20527;-74
2022/06/27 01:02:41;;;;;;;7.60;7.00;;;;;;;;;;5007160;28;20432;-73
2022/06/27 01:05:08;;;;;;;6.90;6.40;;;;;;;;;;5011916;28;20460;-73
2022/06/27 01:07:38;;;;;;;6.50;6.10;;;;;;;;;;5005327;28;20436;-75
2022/06/27 01:10:06;;;;;;;7.50;7.00;;;;;;;;;;5018682;28;20436;-73
2022/06/27 01:12:33;;;;;;;8.13;7.53;;;;;;;;;;5005196;28;20539;-72
2022/06/27 01:15:01;;;;;;;9.10;8.50;;;;;;;;;;5015738;28;20418;-74
2022/06/27 01:17:28;;;;;;;7.57;7.07;;;;;;;;;;5004734;28;20471;-72
2022/06/27 01:19:56;;;;;;;8.95;8.35;;;;;;;;;;5006982;28;20431;-72
2022/06/27 01:22:25;;;;;;;9.43;8.82;;;;;;;;;;5005544;28;20815;-72
2022/06/27 01:24:52;;;;;;;8.90;8.30;;;;;;;;;;5011597;28;20464;-74
2022/06/27 01:27:19;;;;;;;9.33;8.73;;;;;;;;;;5006700;28;20448;-73
2022/06/27 01:29:46;;;;;;;10.05;9.35;;;;;;;;;;5018963;28;20438;-72
2022/06/27 01:32:13;;;;;;;11.55;10.75;;;;;;;;;;5011215;28;20518;-72
2022/06/27 01:34:40;;;;;;;10.90;10.20;;;;;;;;;;5018902;28;20521;-72
2022/06/27 01:37:08;;;;;;;10.35;9.65;;;;;;;;;;5009528;28;20435;-72
2022/06/27 01:39:36;;;;;;;9.10;8.50;;;;;;;;;;5005695;28;20432;-72
2022/06/27 01:42:05;;;;;;;8.45;7.85;;;;;;;;;;5004577;28;20456;-72
2022/06/27 01:44:34;;;;;;;8.52;7.93;;;;;;;;;;5013920;28;20502;-72
2022/06/27 01:47:03;;;;;;;7.80;7.30;;;;;;;;;;5005827;28;20451;-74
2022/06/27 01:49:31;;;;;;;8.00;7.50;;;;;;;;;;5007130;28;20432;-74
2022/06/27 01:51:58;;;;;;;8.38;7.78;;;;;;;;;;5013893;28;20431;-73
2022/06/27 01:54:26;;;;;;;8.90;8.30;;;;;;;;;;5009248;28;20438;-73
2022/06/27 01:56:55;;;;;;;8.10;7.50;;;;;;;;;;5018163;28;20518;-73
2022/06/27 01:59:23;;;;;;;8.20;7.60;;;;;;;;;;5008369;28;20826;-74
2022/06/27 02:01:50;;;;;;;8.13;7.63;;;;;;;;;;5005711;28;20799;-72
2022/06/27 02:04:18;;;;;;;8.00;7.30;;;;;;;;;;5008312;28;21028;-73
2022/06/27 02:06:46;;;;;;;7.80;7.30;;;;;;;;;;5012039;28;20457;-73
2022/06/27 02:09:14;;;;;;;7.60;7.10;;;;;;;;;;5008396;28;20448;-73
2022/06/27 02:11:42;;;;;;;7.43;6.90;;;;;;;;;;5012599;28;20910;-73
2022/06/27 02:14:11;;;;;;;7.70;7.10;;;;;;;;;;5013800;28;20436;-73
2022/06/27 02:16:39;;;;;;;7.20;6.70;;;;;;;;;;5004375;28;20850;-73
2022/06/27 02:19:07;;;;;;;6.90;6.30;;;;;;;;;;5012770;28;20446;-72
2022/06/27 02:21:34;;;;;;;6.50;5.90;;;;;;;;;;5003991;28;20441;-73
2022/06/27 02:24:01;;;;;;;6.00;5.50;;;;;;;;;;5010562;28;20447;-73
2022/06/27 02:26:29;;;;;;;5.85;5.35;;;;;;;;;;5006627;28;20440;-75
2022/06/27 02:28:56;;;;;;;5.70;5.20;;;;;;;;;;5005063;28;20475;-72
2022/06/27 02:31:25;;;;;;;5.40;5.00;;;;;;;;;;5010694;28;20454;-72
2022/06/27 02:33:53;;;;;;;6.88;4.90;;;;;;;;;;5007758;28;20452;-72
2022/06/27 02:36:21;;;;;;;5.72;5.32;;;;;;;;;;5003396;28;20445;-72
2022/06/27 02:38:49;;;;;;;5.37;4.97;;;;;;;;;;5004390;28;20559;-74
2022/06/27 02:41:17;;;;;;;5.85;5.35;;;;;;;;;;5006183;28;20871;-74
2022/06/27 02:43:47;;;;;;;5.63;5.10;;;;;;;;;;5004281;28;20539;-74
2022/06/27 02:46:14;;;;;;;5.60;5.20;;;;;;;;;;5009952;28;20539;-74
2022/06/27 02:48:46;;;;;;;5.77;5.30;;;;;;;;;;5004814;28;20467;-74
2022/06/27 02:51:15;;;;;;;5.90;5.40;;;;;;;;;;5001894;28;20439;-73
2022/06/27 02:53:44;;;;;;;5.70;5.30;;;;;;;;;;5008194;28;20420;-74
2022/06/27 02:56:12;;;;;;;5.40;5.00;;;;;;;;;;5005595;28;20440;-73
2022/06/27 02:58:43;;;;;;;5.90;5.43;;;;;;;;;;5019156;28;20435;-74
2022/06/27 03:01:11;;;;;;;5.60;5.20;;;;;;;;;;5002901;28;20850;-72
2022/06/27 03:03:39;;;;;;;5.35;4.95;;;;;;;;;;5014373;28;20456;-72
2022/06/27 03:06:08;;;;;;;5.85;5.43;;;;;;;;;;5009771;28;20455;-75
2022/06/27 03:08:39;;;;;;;5.53;5.10;;;;;;;;;;5003027;28;20536;-73
2022/06/27 03:11:06;;;;;;;5.65;5.15;;;;;;;;;;5014772;28;20549;-74
2022/06/27 03:13:34;;;;;;;5.05;4.75;;;;;;;;;;5010895;28;20437;-72
2022/06/27 03:16:01;;;;;;;4.80;4.50;;;;;;;;;;5002416;28;20444;-75
2022/06/27 03:18:28;;;;;;;4.80;4.50;;;;;;;;;;5006764;28;20440;-74
2022/06/27 03:20:55;;;;;;;5.30;4.90;;;;;;;;;;5010654;28;20437;-74
2022/06/27 03:23:24;;;;;;;5.07;4.60;;;;;;;;;;5006678;28;20520;-72
2022/06/27 03:25:51;;;;;;;5.18;4.88;;;;;;;;;;5003365;28;20449;-73
2022/06/27 03:28:18;;;;;;;5.28;4.88;;;;;;;;;;5005328;28;20448;-75
2022/06/27 03:30:46;;;;;;;5.15;4.75;;;;;;;;;;5009391;28;20441;-72
2022/06/27 03:33:13;;;;;;;5.05;4.65;;;;;;;;;;4996982;28;20787;-72
2022/06/27 03:35:41;;;;;;;4.90;4.50;;;;;;;;;;5005206;28;20436;-75
2022/06/27 03:38:08;;;;;;;5.30;4.90;;;;;;;;;;5020221;28;20411;-74
2022/06/27 03:40:36;;;;;;;5.10;4.70;;;;;;;;;;5015142;28;20444;-73
2022/06/27 03:43:04;;;;;;;5.30;4.60;;;;;;;;;;5045710;23;20440;-71
2022/06/27 03:45:31;;;;;;;5.20;4.70;;;;;;;;;;5045378;28;20943;-72
2022/06/27 03:48:00;;;;;;;4.90;4.50;;;;;;;;;;5047698;28;20422;-72
2022/06/27 03:50:26;;;;;;;5.10;4.70;;;;;;;;;;5047600;28;20429;-72
2022/06/27 03:52:54;;;;;;;5.18;4.78;;;;;;;;;;5044722;28;20453;-72
2022/06/27 03:55:21;;;;;;;4.80;4.40;;;;;;;;;;5046934;28;20441;-72
2022/06/27 03:57:50;;;;;;;6.60;6.00;;;;;;;;;;5045873;28;20592;-72
2022/06/27 04:00:18;;;;;;;6.07;5.67;;;;;;;;;;5043832;28;20533;-71
2022/06/27 04:02:45;;;;;;;6.17;5.67;;;;;;;;;;5044375;28;20871;-71
2022/06/27 04:05:12;;;;;;;6.60;6.00;;;;;;;;;;5043629;28;20429;-72
2022/06/27 04:07:40;;;;;;;6.88;6.38;;;;;;;;;;5047492;28;20882;-71
2022/06/27 04:10:08;;;;;;;6.55;5.95;;;;;;;;;;5047235;28;20461;-71
2022/06/27 04:12:35;;;;;;;6.75;6.25;;;;;;;;;;5037473;28;20437;-72
2022/06/27 04:15:04;;;;;;;6.37;5.90;;;;;;;;;;5046143;28;20498;-71
2022/06/27 04:17:31;;;;;;;6.40;5.90;;;;;;;;;;5045813;28;20467;-71
2022/06/27 04:19:58;;;;;;;6.93;6.32;;;;;;;;;;5044618;28;20911;-71
2022/06/27 04:22:25;;;;;;;6.65;6.05;;;;;;;;;;5048247;28;21267;-71
2022/06/27 04:24:52;;;;;;;6.68;6.25;;;;;;;;;;5046444;28;20437;-69
2022/06/27 04:27:20;;;;;;;6.93;6.43;;;;;;;;;;5043398;28;20816;-69
2022/06/27 04:29:49;;;;;;;6.70;6.20;;;;;;;;;;5044765;28;20532;-70
2022/06/27 04:32:17;;;;;;;7.13;6.53;;;;;;;;;;5043444;28;20490;-63
2022/06/27 04:34:45;;;;;;;6.70;6.20;;;;;;;;;;5037598;28;20440;-62
2022/06/27 04:37:12;;;;;;;7.00;6.40;;;;;;;;;;5043618;28;20433;-63
2022/06/27 04:39:39;;;;;;;7.82;7.13;;;;;;;;;;5046867;28;21112;-62
2022/06/27 04:42:07;;;;;;;7.28;6.68;;;;;;;;;;5043806;28;20464;-61
2022/06/27 04:44:34;;;;;;;7.88;7.28;;;;;;;;;;5040530;28;20436;-62
2022/06/27 04:47:02;;;;;;;7.80;7.20;;;;;;;;;;5044660;28;20433;-62
2022/06/27 04:49:30;;;;;;;7.82;7.20;;;;;;;;;;5045124;28;20928;-63
2022/06/27 04:51:58;;;;;;;7.53;6.93;;;;;;;;;;5044823;28;20967;-63
2022/06/27 04:54:26;;;;;;;7.82;7.22;;;;;;;;;;5044942;28;20429;-64
2022/06/27 04:56:54;;;;;;;7.80;7.20;;;;;;;;;;5042143;28;20433;-64
2022/06/27 04:59:21;;;;;;;7.57;6.97;;;;;;;;;;5045276;28;20510;-67
2022/06/27 05:01:50;;;;;;;7.50;6.90;;;;;;;;;;5041056;28;20429;-66
2022/06/27 05:04:17;;;;;;;7.70;7.10;;;;;;;;;;5044700;28;20443;-66
2022/06/27 05:06:46;;;;;;;7.88;7.30;;;;;;;;;;5043266;28;20511;-66
2022/06/27 05:09:13;;;;;;;9.43;8.63;;;;;;;;;;5048047;28;20498;-67
2022/06/27 05:11:40;;;;;;;8.57;7.97;;;;;;;;;;5046384;28;20914;-66
2022/06/27 05:14:07;;;;;;;8.93;8.23;;;;;;;;;;5041691;28;20446;-66
2022/06/27 05:16:35;;;;;;;9.13;8.43;;;;;;;;;;5041873;28;20444;-66
2022/06/27 05:19:02;;;;;;;8.70;7.90;;;;;;;;;;5036403;28;20443;-67
2022/06/27 05:21:29;;;;;;;8.60;7.90;;;;;;;;;;5042795;28;20436;-66
2022/06/27 05:23:57;;;;;;;8.95;8.25;;;;;;;;;;5040825;28;20520;-67
2022/06/27 05:26:25;;;;;;;9.93;8.95;;;;;;;;;;5041179;28;20433;-66
2022/06/27 05:28:52;;;;;;;8.80;8.10;;;;;;;;;;5042334;28;20925;-66
2022/06/27 05:31:19;;;;;;;8.57;7.87;;;;;;;;;;5043260;28;20514;-65
2022/06/27 05:33:46;;;;;;;8.98;8.27;;;;;;;;;;5041232;28;20456;-66
2022/06/27 05:36:13;;;;;;;8.95;8.25;;;;;;;;;;5040802;28;20458;-65
2022/06/27 05:38:41;;;;;;;8.20;7.60;;;;;;;;;;5044054;28;20429;-66
2022/06/27 05:41:09;;;;;;;8.75;8.15;;;;;;;;;;5044063;28;20437;-65
2022/06/27 05:43:36;;;;;;;8.60;7.80;;;;;;;;;;5041799;28;20441;-66
2022/06/27 05:46:04;;;;;;;8.40;7.80;;;;;;;;;;5044674;28;20440;-64
2022/06/27 05:48:31;;;;;;;9.20;8.50;;;;;;;;;;5040391;28;20440;-66
2022/06/27 05:50:59;;;;;;;8.43;7.82;;;;;;;;;;5043525;28;20443;-65
2022/06/27 05:53:28;;;;;;;8.68;8.07;;;;;;;;;;5044363;28;20433;-66
2022/06/27 05:55:55;;;;;;;8.32;7.72;;;;;;;;;;5044386;28;21162;-65
2022/06/27 05:58:24;;;;;;;7.93;7.43;;;;;;;;;;5045115;28;20429;-65
2022/06/27 06:00:52;;;;;;;8.00;7.40;;;;;;;;;;5045441;28;20797;-64
2022/06/27 06:03:19;;;;;;;7.72;7.22;;;;;;;;;;5044228;28;20441;-65
2022/06/27 06:05:46;;;;;;;7.50;7.00;;;;;;;;;;5048372;28;21081;-65
2022/06/27 06:08:14;;;;;;;7.50;6.90;;;;;;;;;;5049805;28;20522;-65
2022/06/27 06:10:41;;;;;;;7.60;7.00;;;;;;;;;;5046730;28;20486;-64
2022/06/27 06:13:09;;;;;;;8.10;7.60;;;;;;;;;;5047527;28;20473;-64
2022/06/27 06:15:38;;;;;;;7.85;7.25;;;;;;;;;;5042457;28;20483;-65
2022/06/27 06:18:05;;;;;;;8.65;7.95;;;;;;;;;;5046560;28;20441;-65
2022/06/27 06:20:32;;;;;;;8.90;8.30;;;;;;;;;;5045141;28;20421;-66
2022/06/27 06:23:00;;;;;;;8.40;7.80;;;;;;;;;;5041809;28;20522;-65
2022/06/27 06:25:27;;;;;;;8.43;7.82;;;;;;;;;;5045770;28;21012;-66
2022/06/27 06:27:56;;;;;;;9.00;8.10;;;;;;;;;;5045054;28;20441;-65
2022/06/27 06:30:24;;;;;;;9.10;8.25;;;;;;;;;;5045714;28;20911;-64
2022/06/27 06:32:54;;;;;;;9.20;8.40;;;;;;;;;;5045073;28;20441;-65
2022/06/27 06:35:22;;;;;;;9.38;8.57;;;;;;;;;;5047733;28;20749;-66
2022/06/27 06:37:51;;;;;;;10.13;9.23;;;;;;;;;;5042829;28;20441;-65
2022/06/27 06:40:18;;;;;;;10.20;9.40;;;;;;;;;;5047323;28;20447;-66
2022/06/27 06:42:45;;;;;;;8.90;8.30;;;;;;;;;;5043539;28;20823;-65
2022/06/27 06:45:13;;;;;;;9.50;8.80;;;;;;;;;;5043588;28;20885;-67
2022/06/27 06:47:43;;;;;;;9.82;9.02;;;;;;;;;;5046769;28;20421;-63
2022/06/27 06:50:13;;;;;;;10.32;9.63;;;;;;;;;;5040667;28;20437;-65
2022/06/27 06:52:41;;;;;;;11.30;10.20;;;;;;;;;;5039913;28;20999;-65
2022/06/27 06:55:09;;;;;;;11.15;10.25;;;;;;;;;;5039825;28;20437;-64
2022/06/27 06:57:37;;;;;;;10.80;10.10;;;;;;;;;;5045352;28;20921;-63
2022/06/27 07:00:05;;;;;;;10.30;9.40;;;;;;;;;;5044480;28;20447;-65
2022/06/27 07:02:32;;;;;;;12.30;11.25;;;;;;;;;;5041339;28;20433;-63
2022/06/27 07:05:02;;;;;;;12.20;11.30;;;;;;;;;;5044464;28;20810;-65
2022/06/27 07:07:32;;;;;;;10.90;10.10;;;;;;;;;;5047698;28;20425;-67
2022/06/27 07:09:59;;;;;;;12.90;11.90;;;;;;;;;;5045671;28;20525;-65
2022/06/27 07:12:29;;;;;;;12.60;11.60;;;;;;;;;;5042698;28;20445;-66
2022/06/27 07:14:58;;;;;;;14.15;12.95;;;;;;;;;;5041334;28;20430;-65
2022/06/27 07:17:25;;;;;;;12.10;11.13;;;;;;;;;;5044324;28;20513;-65
2022/06/27 07:19:53;;;;;;;13.88;12.77;;;;;;;;;;5044875;28;21220;-66
2022/06/27 07:22:23;;;;;;;12.53;11.53;;;;;;;;;;5044029;28;20432;-66
2022/06/27 07:24:51;;;;;;;12.05;11.07;;;;;;;;;;5042973;28;20501;-66
2022/06/27 07:27:20;;;;;;;13.00;12.00;;;;;;;;;;5042968;28;20436;-69
2022/06/27 07:29:48;;;;;;;14.43;13.43;;;;;;;;;;5045540;28;20442;-68
2022/06/27 07:32:16;;;;;;;16.20;14.90;;;;;;;;;;5045193;28;20440;-66
2022/06/27 07:34:43;;;;;;;14.63;13.50;;;;;;;;;;5046891;28;20414;-68
2022/06/27 07:37:10;;;;;;;16.75;14.98;;;;;;;;;;5040878;28;20935;-68
2022/06/27 07:39:37;;;;;;;13.77;12.60;;;;;;;;;;5047268;28;20428;-66
2022/06/27 07:42:06;;;;;;;13.77;12.57;;;;;;;;;;5042872;28;20429;-67
2022/06/27 07:44:34;;;;;;;13.82;12.80;;;;;;;;;;5048063;28;20423;-67
2022/06/27 07:47:03;;;;;;;14.20;13.00;;;;;;;;;;5046526;28;20563;-68
2022/06/27 07:49:30;;;;;;;12.55;11.55;;;;;;;;;;5046759;28;20515;-65
2022/06/27 07:51:57;;;;;;;12.33;11.43;;;;;;;;;;5046132;28;21288;-67
2022/06/27 07:54:25;;;;;;;12.75;11.65;;;;;;;;;;5046296;28;20440;-70
2022/06/27 07:56:52;;;;;;;12.48;11.48;;;;;;;;;;5040629;28;20611;-64
2022/06/27 07:59:21;;;;;;;13.13;12.10;;;;;;;;;;5047117;28;20417;-63
2022/06/27 08:01:48;;;;;;;14.27;13.27;;;;;;;;;;5046856;28;20429;-65
2022/06/27 08:04:16;;;;;;;13.10;12.20;;;;;;;;;;5043753;28;20431;-66
2022/06/27 08:06:46;;;;;;;12.43;11.38;;;;;;;;;;5045174;28;20437;-64
2022/06/27 08:09:13;;;;;;;11.95;11.05;;;;;;;;;;5046882;28;20425;-66
2022/06/27 08:11:42;;;;;;;11.95;11.00;;;;;;;;;;5043866;28;20582;-66
2022/06/27 08:14:11;;;;;;;12.18;11.18;;;;;;;;;;5047830;28;20417;-65
2022/06/27 08:16:40;;;;;;;12.40;11.40;;;;;;;;;;5046646;28;20429;-66
2022/06/27 08:19:07;;;;;;;10.98;10.05;;;;;;;;;;5043567;28;20436;-65
2022/06/27 08:21:35;;;;;;;12.05;11.10;;;;;;;;;;5041987;28;20440;-65
2022/06/27 08:24:03;;;;;;;11.35;10.35;;;;;;;;;;5045094;28;20434;-65
2022/06/27 08:26:30;;;;;;;10.75;9.85;;;;;;;;;;5045696;28;20429;-63
2022/06/27 08:28:59;;;;;;;10.90;9.93;;;;;;;;;;5046833;28;20421;-62
2022/06/27 08:31:27;;;;;;;11.20;10.40;;;;;;;;;;5040093;28;20436;-62
2022/06/27 08:33:58;;;;;;;10.87;10.07;;;;;;;;;;5044155;28;20484;-64
2022/06/27 08:36:26;;;;;;;9.80;9.00;;;;;;;;;;5046377;28;20483;-66
2022/06/27 08:38:53;;;;;;;11.40;10.60;;;;;;;;;;5044171;28;20447;-63
2022/06/27 08:41:22;;;;;;;11.35;10.40;;;;;;;;;;5046741;28;20448;-63
2022/06/27 08:43:49;;;;;;;12.65;11.65;;;;;;;;;;5045677;28;20455;-63
2022/06/27 08:46:18;;;;;;;13.10;12.20;;;;;;;;;;5044629;28;20465;-62
2022/06/27 08:48:47;;;;;;;12.93;11.93;;;;;;;;;;5045069;28;20440;-63
2022/06/27 08:51:16;;;;;;;12.45;11.45;;;;;;;;;;5043886;28;20465;-62
2022/06/27 08:53:43;;;;;;;12.73;11.82;;;;;;;;;;5045373;28;20424;-63
2022/06/27 08:56:12;;;;;;;12.43;11.43;;;;;;;;;;5047459;28;20464;-63
2022/06/27 08:58:40;;;;;;;12.27;11.20;;;;;;;;;;5046406;28;20451;-63
2022/06/27 09:01:09;;;;;;;12.18;11.07;;;;;;;;;;5045890;28;20456;-64
2022/06/27 09:03:36;;;;;;;11.45;10.45;;;;;;;;;;5040879;28;20421;-64
2022/06/27 09:06:04;;;;;;;12.48;11.38;;;;;;;;;;5049193;28;20442;-63
2022/06/27 09:08:34;;;;;;;11.90;11.00;;;;;;;;;;5041887;28;20440;-63
2022/06/27 09:11:01;;;;;;;12.48;11.40;;;;;;;;;;5045438;28;20436;-62
2022/06/27 09:13:29;;;;;;;12.10;11.10;;;;;;;;;;5042304;28;20429;-62
2022/06/27 09:15:59;;;;;;;12.33;11.43;;;;;;;;;;5043232;28;20437;-63
2022/06/27 09:18:27;;;;;;;11.60;10.70;;;;;;;;;;5046002;28;20437;-64
2022/06/27 09:20:57;;;;;;;12.02;11.02;;;;;;;;;;5046487;28;20433;-63
2022/06/27 09:23:28;;;;;;;11.77;10.88;;;;;;;;;;5040910;28;20429;-64
2022/06/27 09:26:01;;;;;;;11.80;10.90;;;;;;;;;;5036615;28;20436;-61
2022/06/27 09:28:42;;;;;;;11.90;10.90;;;;;;;;;;5045327;28;20421;-63
2022/06/27 09:31:13;;;;;;;10.82;10.02;;;;;;;;;;5047427;28;20433;-63
2022/06/27 09:33:41;;;;;;;9.65;8.90;;;;;;;;;;5047334;28;20860;-62
2022/06/27 09:36:13;;;;;;;10.63;9.73;;;;;;;;;;5048859;28;20533;-62
2022/06/27 09:38:44;;;;;;;12.85;11.73;;;;;;;;;;5041431;28;20430;-61
2022/06/27 09:41:14;;;;;;;12.33;11.23;;;;;;;;;;5048717;28;20464;-63
2022/06/27 09:43:44;;;;;;;10.70;9.90;;;;;;;;;;5045564;28;20421;-64
2022/06/27 09:46:13;;;;;;;10.73;9.82;;;;;;;;;;5036155;28;20437;-61
2022/06/27 09:48:42;;;;;;;12.48;11.48;;;;;;;;;;5049416;28;20954;-64
2022/06/27 09:51:12;;;;;;;12.30;11.30;;;;;;;;;;5048041;28;20508;-64
2022/06/27 09:53:39;;;;;;;12.70;11.80;;;;;;;;;;5036497;28;20435;-64
2022/06/27 09:56:09;;;;;;;12.13;11.23;;;;;;;;;;5046102;28;20516;-63
2022/06/27 09:58:38;;;;;;;12.18;11.23;;;;;;;;;;5049684;28;20424;-61
2022/06/27 10:01:05;;;;;;;12.38;11.48;;;;;;;;;;5045882;28;20469;-65
2022/06/27 10:03:33;;;;;;;11.17;10.37;;;;;;;;;;5046004;28;20433;-63
2022/06/27 10:06:01;;;;;;;10.70;9.95;;;;;;;;;;5045183;28;20500;-65
2022/06/27 10:08:31;;;;;;;11.50;10.57;;;;;;;;;;5049560;28;20426;-64
2022/06/27 10:11:06;;;;;;;10.10;9.40;;;;;;;;;;5047813;28;20433;-65
2022/06/27 10:13:34;;;;;;;10.60;9.70;;;;;;;;;;5060197;23;20886;-76
2022/06/27 10:16:07;;;;;;;11.10;10.20;;;;;;;;;;5042637;28;20439;-76
2022/06/27 10:18:49;;;;;;;11.50;10.60;;;;;;;;;;5043635;28;20834;-75
2022/06/27 10:21:26;;;;;;;10.43;9.63;;;;;;;;;;5047512;28;20489;-75
2022/06/27 10:24:08;;;;;;;10.10;9.40;;;;;;;;;;5038112;28;20450;-76
2022/06/27 10:26:42;;;;;;;9.73;9.03;;;;;;;;;;5024009;28;20434;-75
2022/06/27 10:29:27;;;;;;;10.10;9.30;;;;;;;;;;5024593;28;20419;-76
2022/06/27 10:31:56;;;;;;;10.18;9.38;;;;;;;;;;5022621;28;20461;-76
2022/06/27 10:34:48;;;;;;;11.80;10.80;;;;;;;;;;5025682;28;20435;-74
2022/06/27 10:37:35;;;;;;;9.90;9.10;;;;;;;;;;5026750;28;20569;-74
2022/06/27 10:40:20;;;;;;;11.93;10.93;;;;;;;;;;5023767;28;20439;-74
2022/06/27 10:42:48;;;;;;;11.13;10.33;;;;;;;;;;5026938;28;20496;-76
2022/06/27 10:45:25;;;;;;;12.20;11.20;;;;;;;;;;5025755;28;20430;-76
2022/06/27 10:47:54;;;;;;;13.57;12.68;;;;;;;;;;5021321;28;20438;-76
2022/06/27 10:50:23;;;;;;;13.30;12.30;;;;;;;;;;5021730;28;20434;-75
2022/06/27 10:52:51;;;;;;;12.93;11.93;;;;;;;;;;5020573;28;20445;-77
2022/06/27 10:55:22;;;;;;;13.70;12.70;;;;;;;;;;5018688;28;20438;-75
2022/06/27 10:57:49;;;;;;;13.40;12.40;;;;;;;;;;5019151;28;20489;-74
2022/06/27 11:00:47;;;;;;;13.88;12.80;;;;;;;;;;5021739;28;20439;-75
2022/06/27 11:03:22;;;;;;;13.40;12.30;;;;;;;;;;5017266;28;20941;-76
2022/06/27 11:05:54;;;;;;;12.40;11.50;;;;;;;;;;5022809;28;20698;-75
2022/06/27 11:08:22;;;;;;;12.32;11.23;;;;;;;;;;5023182;28;20437;-74
2022/06/27 11:10:49;;;;;;;12.95;11.95;;;;;;;;;;5024296;28;20520;-74
2022/06/27 11:13:31;;;;;;;13.00;11.90;;;;;;;;;;5026415;28;20427;-74
2022/06/27 11:15:58;;;;;;;13.90;12.63;;;;;;;;;;5032275;28;20553;-75
2022/06/27 11:18:27;;;;;;;13.20;12.00;;;;;;;;;;5024267;28;20442;-75
2022/06/27 11:20:57;;;;;;;13.05;11.95;;;;;;;;;;5028713;28;20446;-74
2022/06/27 11:23:24;;;;;;;13.80;12.80;;;;;;;;;;5029052;28;20512;-74
2022/06/27 11:25:55;;;;;;;14.85;13.65;;;;;;;;;;5022654;28;20502;-73
2022/06/27 11:33:53;;;;;;;14.93;13.70;;;;;;;;;;5022101;28;20438;-75
2022/06/27 11:36:20;;;;;;;14.60;13.20;;;;;;;;;;5028072;28;20433;-75
2022/06/27 11:38:48;;;;;;;13.45;12.25;;;;;;;;;;5020655;28;20785;-76
2022/06/27 11:41:16;;;;;;;14.60;13.40;;;;;;;;;;5022734;28;20851;-75
2022/06/27 11:43:51;;;;;;;15.63;14.40;;;;;;;;;;5023435;28;20446;-75
2022/06/27 11:46:36;;;;;;;13.25;12.15;;;;;;;;;;5028130;28;20429;-75
2022/06/27 11:49:06;;;;;;;14.60;13.40;;;;;;;;;;5019210;28;20461;-76
2022/06/27 11:51:35;;;;;;;13.35;12.35;;;;;;;;;;5020063;28;20549;-76
2022/06/27 11:54:04;;;;;;;13.48;12.48;;;;;;;;;;5028197;28;20904;-75
2022/06/27 11:56:32;;;;;;;14.07;13.07;;;;;;;;;;5024030;28;20426;-75
2022/06/27 11:59:00;;;;;;;14.20;13.00;;;;;;;;;;5023771;28;20525;-75
2022/06/27 12:01:28;;;;;;;14.15;13.00;;;;;;;;;;5020413;28;20457;-76
2022/06/27 12:04:11;;;;;;;14.10;13.00;;;;;;;;;;5022593;28;20430;-74
2022/06/27 12:06:42;;;;;;;12.38;11.38;;;;;;;;;;5021107;28;20426;-74
2022/06/27 12:09:10;;;;;;;60.33;19.35;;;;;;;;;;5023487;28;20441;-75
2022/06/27 12:11:37;;;;;;;12.93;11.93;;;;;;;;;;5026615;28;20450;-74
2022/06/27 12:14:04;;;;;;;12.40;11.40;;;;;;;;;;5024834;28;20430;-74
2022/06/27 12:16:45;;;;;;;11.60;10.63;;;;;;;;;;5025911;28;20454;-72
2022/06/27 12:19:14;;;;;;;12.35;11.45;;;;;;;;;;5021491;28;20749;-66
2022/06/27 12:21:41;;;;;;;11.15;10.25;;;;;;;;;;5023993;28;20490;-66
2022/06/27 12:24:09;;;;;;;12.40;11.40;;;;;;;;;;5024088;28;20445;-67
2022/06/27 12:26:36;;;;;;;11.85;11.02;;;;;;;;;;5023023;28;20518;-66
2022/06/27 12:29:04;;;;;;;12.35;11.25;;;;;;;;;;5025793;28;20822;-66
2022/06/27 12:31:33;;;;;;;12.10;11.10;;;;;;;;;;5022411;28;20524;-68
2022/06/27 12:34:00;;;;;;;12.88;11.77;;;;;;;;;;5019602;28;20937;-65
2022/06/27 12:36:30;;;;;;;12.25;11.15;;;;;;;;;;5020965;28;20442;-66
2022/06/27 12:38:58;;;;;;;13.00;11.80;;;;;;;;;;5025716;28;20438;-65
2022/06/27 12:41:25;;;;;;;11.55;10.60;;;;;;;;;;5024528;28;20431;-65
2022/06/27 12:43:52;;;;;;;11.50;10.47;;;;;;;;;;5021381;28;20528;-66
2022/06/27 12:46:19;;;;;;;12.35;11.00;;;;;;;;;;5021775;28;20939;-67
2022/06/27 12:48:47;;;;;;;10.40;9.50;;;;;;;;;;5020880;28;20804;-67
2022/06/27 12:51:15;;;;;;;9.07;8.02;;;;;;;;;;5014986;28;20540;-67
2022/06/27 12:53:44;;;;;;;9.13;8.30;;;;;;;;;;5021323;28;20439;-67
2022/06/27 12:56:11;;;;;;;8.07;7.38;;;;;;;;;;5027398;28;20427;-67
2022/06/27 12:58:39;;;;;;;7.93;7.23;;;;;;;;;;5025824;28;20469;-67
2022/06/27 13:01:06;;;;;;;7.43;6.80;;;;;;;;;;5039339;28;20518;-67
2022/06/27 13:03:33;;;;;;;7.97;7.17;;;;;;;;;;5027287;28;20497;-67
2022/06/27 13:06:00;;;;;;;8.13;6.47;;;;;;;;;;5021211;28;20527;-67
2022/06/27 13:08:28;;;;;;;6.90;6.20;;;;;;;;;;5027054;28;20430;-67
2022/06/27 13:10:57;;;;;;;6.97;6.28;;;;;;;;;;5024937;28;20435;-67
2022/06/27 13:13:24;;;;;;;7.25;6.25;;;;;;;;;;5033340;28;20490;-67
2022/06/27 13:15:51;;;;;;;6.93;5.10;;;;;;;;;;5032248;28;20461;-67
2022/06/27 13:18:18;;;;;;;5.18;4.68;;;;;;;;;;5029192;28;20444;-67
2022/06/27 13:20:45;;;;;;;5.68;5.15;;;;;;;;;;5034518;28;20431;-67
2022/06/27 13:23:12;;;;;;;5.20;4.30;;;;;;;;;;5023962;28;20436;-67
2022/06/27 13:25:39;;;;;;;5.20;4.40;;;;;;;;;;5024891;28;20524;-67
2022/06/27 13:28:08;;;;;;;5.00;4.50;;;;;;;;;;5025258;28;20773;-67
2022/06/27 13:30:36;;;;;;;5.38;4.38;;;;;;;;;;5035107;28;20925;-67
2022/06/27 13:33:03;;;;;;;5.32;4.80;;;;;;;;;;5020951;28;20443;-67
2022/06/27 13:35:30;;;;;;;4.97;4.20;;;;;;;;;;5025909;28;20438;-67
2022/06/27 13:38:00;;;;;;;5.45;4.47;;;;;;;;;;5022375;28;20462;-65
2022/06/27 13:40:27;;;;;;;4.55;4.15;;;;;;;;;;5024720;28;20956;-67
2022/06/27 13:42:55;;;;;;;4.60;4.20;;;;;;;;;;5021232;28;21367;-77
2022/06/27 13:45:24;;;;;;;4.28;3.97;;;;;;;;;;5024413;28;20443;-76
2022/06/27 13:47:52;;;;;;;4.30;3.90;;;;;;;;;;5021542;28;20442;-76
2022/06/27 13:50:19;;;;;;;4.47;4.10;;;;;;;;;;5026465;28;20421;-77
2022/06/27 13:52:46;;;;;;;5.07;4.10;;;;;;;;;;5032591;28;20425;-77
2022/06/27 13:55:13;;;;;;;5.50;5.00;;;;;;;;;;5032888;28;20518;-78
2022/06/27 13:57:40;;;;;;;5.45;4.90;;;;;;;;;;5023051;28;20813;-68
2022/06/27 14:00:09;;;;;;;4.78;4.28;;;;;;;;;;5028620;28;20445;-78
2022/06/27 14:02:37;;;;;;;4.57;4.18;;;;;;;;;;5032640;28;20544;-78
2022/06/27 14:05:05;;;;;;;4.55;4.15;;;;;;;;;;5026321;28;20488;-77
2022/06/27 14:07:40;;;;;;;4.90;3.90;;;;;;;;;;5017358;28;20449;-77
2022/06/27 14:10:08;;;;;;;3.40;3.10;;;;;;;;;;5021678;28;20516;-77
2022/06/27 14:12:36;;;;;;;4.00;3.25;;;;;;;;;;5020225;28;20472;-77
2022/06/27 14:15:03;;;;;;;5.53;3.33;;;;;;;;;;5027808;28;20469;-77
2022/06/27 14:17:30;;;;;;;3.00;2.70;;;;;;;;;;5028232;28;20442;-77
2022/06/27 14:19:58;;;;;;;3.17;2.87;;;;;;;;;;5018566;28;20435;-71
2022/06/27 14:22:26;;;;;;;4.10;3.30;;;;;;;;;;5017267;28;21123;-71
2022/06/27 14:24:53;;;;;;;3.50;3.20;;;;;;;;;;5022273;28;20447;-70
2022/06/27 14:27:20;;;;;;;4.13;3.15;;;;;;;;;;5022795;28;20444;-71
2022/06/27 14:29:47;;;;;;;4.13;3.72;;;;;;;;;;5024212;28;20533;-70
2022/06/27 14:32:14;;;;;;;5.53;3.80;;;;;;;;;;5020386;28;20503;-70
2022/06/27 14:34:42;;;;;;;3.53;3.25;;;;;;;;;;5019933;28;20438;-71
2022/06/27 14:37:11;;;;;;;4.43;3.50;;;;;;;;;;5022521;28;20442;-70
2022/06/27 14:39:38;;;;;;;4.35;4.00;;;;;;;;;;5021950;28;20493;-70
2022/06/27 14:42:05;;;;;;;4.15;3.75;;;;;;;;;;5023906;28;20812;-70
2022/06/27 14:44:34;;;;;;;3.42;1.70;;;;;;;;;;5022879;28;20422;-72
2022/06/27 14:47:02;;;;;;;3.80;1.50;;;;;;;;;;5022012;28;20518;-72